Aérodrome :
LOGIN :

S'inscrire | Disclaimer

   EN    FR    IT 

 










Légende :    VFR   VFR Marginal   IFR   IFR Intensif   IFR Très Intensif
Visi : 
Plafond : 
>= 8 km
>= 3000ft
5 à 8 km
1000 à 3000 ft
1500m à 5 km
500 à 1000 ft
800 à 1500m
200 à 500 ft
< 800m
< 200 ft
Symboles :   Orages  Brouillard  Fortes neiges  Fortes précipitations  Vent > 20 kt
SIGMETs :   Divers  Orages  Givrage  Turbulence  Onde Orograph.  Cendres Volcan.






- Altitude de l'aérodrome : 1363 ft


ETIC - Grafenwohr Army Air Field

DERNIER METAR :
  • 232056Z AUTO 00000KT 9999 -RA FEW080 FEW100 18/18 A3005 RMK AO2 DZB46E50RAB50 SLP167 P0000 60000 T01830181 53004 $

METARs EXPIRÉS :
  • 232046Z AUTO 00000KT 9999 -DZ FEW032 SCT080 BKN100 18/18 A3006 RMK AO2 DZB46 SLP171 $
  • 231956Z AUTO 00000KT 9999 BKN110 BKN130 19/19 A3002 RMK AO2 DZB37E46DZB46E46 SLP157 P0000 T01870185 $
  • 231946Z AUTO 00000KT 9999 BKN110 BKN130 19/19 A3002 RMK AO2 DZB37E46DZB46 SLP157 $

TAF AMD TAF ETIC
Valide du 23 à 19h jusqu'au 25 à 00h UTC


231910Z 2319/2424 04009KT 9999 SCT020 BKN030 QNH3006INS
BECMG 2319/2320 06009KT 8000 -SHRA VCTS SCT010 BKN020CB QNH3005INS
TEMPO 2321/2405 05012G18KT -TSRA BKN010 OVC015CB
BECMG 2405/2406 03009KT 6000 -SHRA BR SCT004 BKN008 OVC020 QNH3002INS
BECMG 2410/2411 07006KT 9999 NSW SCT020 BKN030 QNH2999INS
BECMG 2418/2419 01009KT 8000 -SHRA SCT010 BKN020 OVC035 QNH3002INS
TEMPO 2421/2424 35012G18KT -TSRA BKN025CB OVC040 TX21/2413Z TN16/2403Z



MET'MAP, la Météo Aéronautique d'un coup d'oeil ! - Copyright ORBIFLY Décembre 2007 - Disclaimer

ORBIFLY MET'MAP TEAM :

Programmation & Développement : Alexandra Zaïnal
Sur une idée originale de : Baudouin d'Aumeries
Assistance à la programmation : Marc-Olivier Méhu
Soutien technique & logistique : Manuel Goepfert

Contact : metmap@orbifly.com




SOURCES & CREDITS :

   NOAA